sensor_id;sensor_type;location;lat;lon;timestamp;pressure;altitude;pressure_sealevel;temperature;humidity
14612;BME280;7392;52.078;11.650;2023-03-23T00:02:23;99845.16;;;10.45;86.63
14612;BME280;7392;52.078;11.650;2023-03-23T00:04:51;99840.72;;;10.46;86.56
14612;BME280;7392;52.078;11.650;2023-03-23T00:07:18;99831.81;;;10.47;86.42
14612;BME280;7392;52.078;11.650;2023-03-23T00:09:47;99835.38;;;10.49;86.14
14612;BME280;7392;52.078;11.650;2023-03-23T00:12:19;99822.97;;;10.50;85.63
14612;BME280;7392;52.078;11.650;2023-03-23T00:14:45;99820.22;;;10.54;85.25
14612;BME280;7392;52.078;11.650;2023-03-23T00:17:12;99820.19;;;10.57;84.81
14612;BME280;7392;52.078;11.650;2023-03-23T00:19:39;99818.41;;;10.58;84.49
14612;BME280;7392;52.078;11.650;2023-03-23T00:22:13;99824.53;;;10.61;84.14
14612;BME280;7392;52.078;11.650;2023-03-23T00:24:40;99823.56;;;10.65;83.79
14612;BME280;7392;52.078;11.650;2023-03-23T00:27:07;99815.56;;;10.67;83.92
14612;BME280;7392;52.078;11.650;2023-03-23T00:29:38;99804.94;;;10.69;83.87
14612;BME280;7392;52.078;11.650;2023-03-23T00:32:05;99809.34;;;10.70;84.12
14612;BME280;7392;52.078;11.650;2023-03-23T00:34:32;99811.09;;;10.69;83.96
14612;BME280;7392;52.078;11.650;2023-03-23T00:36:59;99812.91;;;10.69;84.51
14612;BME280;7392;52.078;11.650;2023-03-23T00:39:28;99809.41;;;10.66;84.88
14612;BME280;7392;52.078;11.650;2023-03-23T00:41:55;99820.94;;;10.64;84.86
14612;BME280;7392;52.078;11.650;2023-03-23T00:44:26;99817.38;;;10.65;84.91
14612;BME280;7392;52.078;11.650;2023-03-23T00:46:54;99814.72;;;10.65;84.83
14612;BME280;7392;52.078;11.650;2023-03-23T00:49:22;99806.78;;;10.63;84.48
14612;BME280;7392;52.078;11.650;2023-03-23T00:51:51;99815.59;;;10.65;84.87
14612;BME280;7392;52.078;11.650;2023-03-23T00:54:18;99814.72;;;10.66;84.35
14612;BME280;7392;52.078;11.650;2023-03-23T00:56:46;99804.06;;;10.68;84.40
14612;BME280;7392;52.078;11.650;2023-03-23T00:59:13;99798.72;;;10.70;84.20
14612;BME280;7392;52.078;11.650;2023-03-23T01:01:40;99795.16;;;10.71;84.34
14612;BME280;7392;52.078;11.650;2023-03-23T01:04:07;99796.03;;;10.73;84.01
14612;BME280;7392;52.078;11.650;2023-03-23T01:06:39;99797.75;;;10.74;84.09
14612;BME280;7392;52.078;11.650;2023-03-23T01:09:09;99788.00;;;10.74;84.18
14612;BME280;7392;52.078;11.650;2023-03-23T01:11:36;99792.44;;;10.74;84.35
14612;BME280;7392;52.078;11.650;2023-03-23T01:14:05;99773.84;;;10.74;84.38
14612;BME280;7392;52.078;11.650;2023-03-23T01:16:32;99764.16;;;10.73;84.46
14612;BME280;7392;52.078;11.650;2023-03-23T01:18:59;99775.66;;;10.72;84.98
14612;BME280;7392;52.078;11.650;2023-03-23T01:21:26;99785.44;;;10.71;85.12
14612;BME280;7392;52.078;11.650;2023-03-23T01:23:52;99778.31;;;10.72;85.49
14612;BME280;7392;52.078;11.650;2023-03-23T01:26:21;99781.84;;;10.72;85.42
14612;BME280;7392;52.078;11.650;2023-03-23T01:28:48;99775.66;;;10.72;85.57
14612;BME280;7392;52.078;11.650;2023-03-23T01:31:17;99775.66;;;10.72;86.00
14612;BME280;7392;52.078;11.650;2023-03-23T01:33:46;99756.22;;;10.71;86.01
14612;BME280;7392;52.078;11.650;2023-03-23T01:36:14;99750.00;;;10.71;86.19
14612;BME280;7392;52.078;11.650;2023-03-23T01:38:43;99753.59;;;10.70;86.29
14612;BME280;7392;52.078;11.650;2023-03-23T01:41:10;99742.97;;;10.70;86.19
14612;BME280;7392;52.078;11.650;2023-03-23T01:43:54;99759.75;;;10.70;86.42
14612;BME280;7392;52.078;11.650;2023-03-23T01:46:25;99762.41;;;10.70;86.28
14612;BME280;7392;52.078;11.650;2023-03-23T01:48:53;99753.59;;;10.70;86.54
14612;BME280;7392;52.078;11.650;2023-03-23T01:51:21;99741.19;;;10.70;86.19
14612;BME280;7392;52.078;11.650;2023-03-23T01:53:53;99747.31;;;10.74;86.18
14612;BME280;7392;52.078;11.650;2023-03-23T01:56:23;99745.50;;;10.74;85.86
14612;BME280;7392;52.078;11.650;2023-03-23T01:58:52;99747.22;;;10.78;85.56
14612;BME280;7392;52.078;11.650;2023-03-23T02:01:22;99741.88;;;10.81;84.89
14612;BME280;7392;52.078;11.650;2023-03-23T02:03:52;99746.22;;;10.84;85.00
14612;BME280;7392;52.078;11.650;2023-03-23T02:06:20;99739.09;;;10.86;84.68
14612;BME280;7392;52.078;11.650;2023-03-23T02:09:06;99745.16;;;10.93;83.86
14612;BME280;7392;52.078;11.650;2023-03-23T02:11:33;99742.47;;;10.96;83.22
14612;BME280;7392;52.078;11.650;2023-03-23T02:14:01;99752.06;;;11.01;82.72
14612;BME280;7392;52.078;11.650;2023-03-23T02:16:33;99740.53;;;11.04;82.01
14612;BME280;7392;52.078;11.650;2023-03-23T02:19:18;99736.91;;;11.08;82.05
14612;BME280;7392;52.078;11.650;2023-03-23T02:22:01;99734.22;;;11.10;81.80
14612;BME280;7392;52.078;11.650;2023-03-23T02:24:55;99716.44;;;11.12;82.15
14612;BME280;7392;52.078;11.650;2023-03-23T02:27:43;99720.00;;;11.12;82.21
14612;BME280;7392;52.078;11.650;2023-03-23T02:30:30;99735.00;;;11.15;82.68
14612;BME280;7392;52.078;11.650;2023-03-23T02:33:29;99722.63;;;11.14;82.94
14612;BME280;7392;52.078;11.650;2023-03-23T02:36:00;99743.00;;;11.13;83.49
14612;BME280;7392;52.078;11.650;2023-03-23T02:38:31;99745.66;;;11.12;84.13
14612;BME280;7392;52.078;11.650;2023-03-23T02:41:00;99734.22;;;11.10;84.58
14612;BME280;7392;52.078;11.650;2023-03-23T02:43:33;99751.97;;;11.08;84.88
14612;BME280;7392;52.078;11.650;2023-03-23T02:46:04;99741.41;;;11.04;85.75
14612;BME280;7392;52.078;11.650;2023-03-23T02:48:35;99731.69;;;11.03;86.49
14612;BME280;7392;52.078;11.650;2023-03-23T02:51:04;99725.50;;;11.01;87.06
14612;BME280;7392;52.078;11.650;2023-03-23T02:53:34;99722.88;;;11.00;87.26
14612;BME280;7392;52.078;11.650;2023-03-23T02:56:04;99720.28;;;10.98;88.03
14612;BME280;7392;52.078;11.650;2023-03-23T02:58:34;99715.88;;;10.97;88.85
14612;BME280;7392;52.078;11.650;2023-03-23T03:04:01;99716.84;;;10.93;89.52
14612;BME280;7392;52.078;11.650;2023-03-23T03:06:34;99717.75;;;10.92;89.73
14612;BME280;7392;52.078;11.650;2023-03-23T03:09:04;99718.63;;;10.91;90.17
14612;BME280;7392;52.078;11.650;2023-03-23T03:11:34;99718.66;;;10.90;89.94
14612;BME280;7392;52.078;11.650;2023-03-23T03:14:06;99718.66;;;10.90;89.85
14612;BME280;7392;52.078;11.650;2023-03-23T03:16:38;99715.97;;;10.91;89.72
14612;BME280;7392;52.078;11.650;2023-03-23T03:19:11;99709.78;;;10.92;89.29
14612;BME280;7392;52.078;11.650;2023-03-23T03:21:43;99693.81;;;10.94;89.13
14612;BME280;7392;52.078;11.650;2023-03-23T03:24:15;99702.59;;;10.96;89.05
14612;BME280;7392;52.078;11.650;2023-03-23T03:26:50;99701.72;;;10.97;89.32
14612;BME280;7392;52.078;11.650;2023-03-23T03:29:26;99711.41;;;10.98;89.55
14612;BME280;7392;52.078;11.650;2023-03-23T03:31:58;99716.75;;;10.96;89.97
14612;BME280;7392;52.078;11.650;2023-03-23T03:34:27;99711.44;;;10.96;90.17
14612;BME280;7392;52.078;11.650;2023-03-23T03:36:58;99700.91;;;10.93;90.28
14612;BME280;7392;52.078;11.650;2023-03-23T03:39:26;99699.97;;;10.94;90.29
14612;BME280;7392;52.078;11.650;2023-03-23T03:41:54;99707.03;;;10.97;90.25
14612;BME280;7392;52.078;11.650;2023-03-23T03:44:20;99702.56;;;10.99;90.34
14612;BME280;7392;52.078;11.650;2023-03-23T03:46:47;99704.22;;;11.03;89.91
14612;BME280;7392;52.078;11.650;2023-03-23T03:49:14;99698.81;;;11.08;89.56
14612;BME280;7392;52.078;11.650;2023-03-23T03:51:43;99709.44;;;11.09;89.52
14612;BME280;7392;52.078;11.650;2023-03-23T03:54:19;99704.13;;;11.09;89.68
14612;BME280;7392;52.078;11.650;2023-03-23T03:56:45;99711.16;;;11.10;90.00
14612;BME280;7392;52.078;11.650;2023-03-23T03:59:36;99717.41;;;11.09;90.57
14612;BME280;7392;52.078;11.650;2023-03-23T04:02:27;99718.31;;;11.07;91.16
14612;BME280;7392;52.078;11.650;2023-03-23T04:04:54;99720.13;;;11.06;91.79
14612;BME280;7392;52.078;11.650;2023-03-23T04:07:22;99726.38;;;11.03;92.97
14612;BME280;7392;52.078;11.650;2023-03-23T04:09:51;99733.50;;;11.00;94.30
14612;BME280;7392;52.078;11.650;2023-03-23T04:13:59;99736.31;;;10.94;97.28
14612;BME280;7392;52.078;11.650;2023-03-23T04:16:35;99742.63;;;10.88;98.55
14612;BME280;7392;52.078;11.650;2023-03-23T04:19:02;99738.28;;;10.82;99.90
14612;BME280;7392;52.078;11.650;2023-03-23T04:21:29;99730.44;;;10.76;100.00
14612;BME280;7392;52.078;11.650;2023-03-23T04:23:56;99721.66;;;10.73;100.00
14612;BME280;7392;52.078;11.650;2023-03-23T04:26:26;99735.03;;;10.68;100.00
14612;BME280;7392;52.078;11.650;2023-03-23T04:28:56;99738.59;;;10.65;100.00
14612;BME280;7392;52.078;11.650;2023-03-23T04:31:35;99744.00;;;10.62;100.00
14612;BME280;7392;52.078;11.650;2023-03-23T04:34:13;99736.09;;;10.58;100.00
14612;BME280;7392;52.078;11.650;2023-03-23T04:36:44;99735.28;;;10.54;100.00
14612;BME280;7392;52.078;11.650;2023-03-23T04:39:15;99721.22;;;10.49;100.00
14612;BME280;7392;52.078;11.650;2023-03-23T04:41:43;99727.44;;;10.46;100.00
14612;BME280;7392;52.078;11.650;2023-03-23T04:44:31;99725.78;;;10.41;100.00
14612;BME280;7392;52.078;11.650;2023-03-23T04:47:04;99728.47;;;10.38;100.00
14612;BME280;7392;52.078;11.650;2023-03-23T04:49:36;99732.97;;;10.34;100.00
14612;BME280;7392;52.078;11.650;2023-03-23T04:52:16;99729.47;;;10.30;100.00
14612;BME280;7392;52.078;11.650;2023-03-23T04:54:47;99725.09;;;10.26;100.00
14612;BME280;7392;52.078;11.650;2023-03-23T04:57:14;99740.16;;;10.24;100.00
14612;BME280;7392;52.078;11.650;2023-03-23T04:59:51;99737.59;;;10.20;100.00
14612;BME280;7392;52.078;11.650;2023-03-23T05:02:25;99742.94;;;10.18;100.00
14612;BME280;7392;52.078;11.650;2023-03-23T05:04:56;99747.38;;;10.16;100.00
14612;BME280;7392;52.078;11.650;2023-03-23T05:07:25;99743.00;;;10.14;100.00
14612;BME280;7392;52.078;11.650;2023-03-23T05:09:53;99755.44;;;10.11;100.00
14612;BME280;7392;52.078;11.650;2023-03-23T05:12:23;99752.78;;;10.10;100.00
14612;BME280;7392;52.078;11.650;2023-03-23T05:14:53;99755.50;;;10.07;100.00
14612;BME280;7392;52.078;11.650;2023-03-23T05:17:23;99766.13;;;10.05;100.00
14612;BME280;7392;52.078;11.650;2023-03-23T05:19:54;99757.31;;;10.03;100.00
14612;BME280;7392;52.078;11.650;2023-03-23T05:22:40;99763.50;;;10.02;100.00
14612;BME280;7392;52.078;11.650;2023-03-23T05:25:08;99765.28;;;10.02;100.00
14612;BME280;7392;52.078;11.650;2023-03-23T05:27:38;99756.44;;;10.03;100.00
14612;BME280;7392;52.078;11.650;2023-03-23T05:30:19;99767.06;;;10.03;100.00
14612;BME280;7392;52.078;11.650;2023-03-23T05:32:47;99759.09;;;10.03;100.00
14612;BME280;7392;52.078;11.650;2023-03-23T05:35:30;99760.84;;;10.04;100.00
14612;BME280;7392;52.078;11.650;2023-03-23T05:37:56;99757.28;;;10.06;100.00
14612;BME280;7392;52.078;11.650;2023-03-23T05:40:23;99757.28;;;10.06;100.00
14612;BME280;7392;52.078;11.650;2023-03-23T05:42:56;99769.63;;;10.07;100.00
14612;BME280;7392;52.078;11.650;2023-03-23T05:45:41;99774.03;;;10.08;100.00
14612;BME280;7392;52.078;11.650;2023-03-23T05:48:08;99768.75;;;10.07;100.00
14612;BME280;7392;52.078;11.650;2023-03-23T05:50:36;99766.09;;;10.07;100.00
14612;BME280;7392;52.078;11.650;2023-03-23T05:53:04;99763.44;;;10.07;100.00
14612;BME280;7392;52.078;11.650;2023-03-23T05:55:35;99757.28;;;10.05;100.00
14612;BME280;7392;52.078;11.650;2023-03-23T05:58:12;99763.44;;;10.07;100.00
14612;BME280;7392;52.078;11.650;2023-03-23T06:00:42;99757.28;;;10.06;100.00
14612;BME280;7392;52.078;11.650;2023-03-23T06:03:19;99757.28;;;10.06;100.00
14612;BME280;7392;52.078;11.650;2023-03-23T06:05:57;99748.41;;;10.06;100.00
14612;BME280;7392;52.078;11.650;2023-03-23T06:08:33;99744.03;;;10.05;100.00
14612;BME280;7392;52.078;11.650;2023-03-23T06:11:02;99747.56;;;10.05;100.00
14612;BME280;7392;52.078;11.650;2023-03-23T06:13:32;99731.63;;;10.05;100.00
14612;BME280;7392;52.078;11.650;2023-03-23T06:16:06;99739.59;;;10.05;100.00
14612;BME280;7392;52.078;11.650;2023-03-23T06:18:49;99736.94;;;10.05;100.00
14612;BME280;7392;52.078;11.650;2023-03-23T06:21:26;99729.00;;;10.04;100.00
14612;BME280;7392;52.078;11.650;2023-03-23T06:23:57;99722.84;;;10.03;100.00
14612;BME280;7392;52.078;11.650;2023-03-23T06:26:30;99705.09;;;10.05;100.00
14612;BME280;7392;52.078;11.650;2023-03-23T06:29:00;99696.31;;;10.03;100.00
14612;BME280;7392;52.078;11.650;2023-03-23T06:31:33;99662.66;;;10.05;100.00
14612;BME280;7392;52.078;11.650;2023-03-23T06:34:02;99665.28;;;10.07;100.00
14612;BME280;7392;52.078;11.650;2023-03-23T06:36:53;99674.09;;;10.09;100.00
14612;BME280;7392;52.078;11.650;2023-03-23T06:39:30;99691.75;;;10.11;100.00
14612;BME280;7392;52.078;11.650;2023-03-23T06:42:18;99682.84;;;10.14;100.00
14612;BME280;7392;52.078;11.650;2023-03-23T06:44:52;99670.44;;;10.16;100.00
14612;BME280;7392;52.078;11.650;2023-03-23T06:47:24;99686.31;;;10.18;100.00
14612;BME280;7392;52.078;11.650;2023-03-23T06:49:52;99688.06;;;10.20;100.00
14612;BME280;7392;52.078;11.650;2023-03-23T06:52:26;99696.00;;;10.22;100.00
14612;BME280;7392;52.078;11.650;2023-03-23T06:54:54;99717.19;;;10.25;100.00
14612;BME280;7392;52.078;11.650;2023-03-23T06:57:22;99717.13;;;10.26;100.00
14612;BME280;7392;52.078;11.650;2023-03-23T06:59:51;99721.53;;;10.29;100.00
14612;BME280;7392;52.078;11.650;2023-03-23T07:02:20;99722.38;;;10.33;100.00
14612;BME280;7392;52.078;11.650;2023-03-23T07:04:51;99725.88;;;10.35;100.00
14612;BME280;7392;52.078;11.650;2023-03-23T07:07:21;99724.13;;;10.35;100.00
14612;BME280;7392;52.078;11.650;2023-03-23T07:09:57;99730.25;;;10.37;100.00
14612;BME280;7392;52.078;11.650;2023-03-23T07:12:25;99733.75;;;10.39;100.00
14612;BME280;7392;52.078;11.650;2023-03-23T07:14:54;99738.19;;;10.40;100.00
14612;BME280;7392;52.078;11.650;2023-03-23T07:17:21;99747.00;;;10.41;100.00
14612;BME280;7392;52.078;11.650;2023-03-23T07:20:01;99749.63;;;10.42;100.00
14612;BME280;7392;52.078;11.650;2023-03-23T07:22:28;99736.31;;;10.45;100.00
14612;BME280;7392;52.078;11.650;2023-03-23T07:25:06;99737.19;;;10.46;100.00
14612;BME280;7392;52.078;11.650;2023-03-23T07:27:48;99734.53;;;10.46;100.00
14612;BME280;7392;52.078;11.650;2023-03-23T07:30:16;99737.19;;;10.46;100.00
14612;BME280;7392;52.078;11.650;2023-03-23T07:32:42;99738.06;;;10.46;100.00
14612;BME280;7392;52.078;11.650;2023-03-23T07:35:10;99723.03;;;10.45;100.00
14612;BME280;7392;52.078;11.650;2023-03-23T07:37:56;99733.59;;;10.47;100.00
14612;BME280;7392;52.078;11.650;2023-03-23T07:40:25;99740.69;;;10.48;100.00
14612;BME280;7392;52.078;11.650;2023-03-23T07:42:57;99743.28;;;10.51;100.00
14612;BME280;7392;52.078;11.650;2023-03-23T07:45:37;99746.78;;;10.53;100.00
14612;BME280;7392;52.078;11.650;2023-03-23T07:48:05;99748.53;;;10.56;100.00
14612;BME280;7392;52.078;11.650;2023-03-23T07:50:32;99751.97;;;10.61;100.00
14612;BME280;7392;52.078;11.650;2023-03-23T07:53:04;99764.28;;;10.65;100.00
14612;BME280;7392;52.078;11.650;2023-03-23T07:55:33;99756.25;;;10.70;100.00
14612;BME280;7392;52.078;11.650;2023-03-23T07:58:04;99759.72;;;10.73;100.00
14612;BME280;7392;52.078;11.650;2023-03-23T08:00:31;99763.16;;;10.78;100.00
14612;BME280;7392;52.078;11.650;2023-03-23T08:03:05;99757.78;;;10.83;100.00
14612;BME280;7392;52.078;11.650;2023-03-23T08:05:50;99770.13;;;10.84;100.00
14612;BME280;7392;52.078;11.650;2023-03-23T08:08:35;99765.66;;;10.86;100.00
14612;BME280;7392;52.078;11.650;2023-03-23T08:11:22;99762.09;;;10.87;100.00
14612;BME280;7392;52.078;11.650;2023-03-23T08:14:06;99766.47;;;10.90;100.00
14612;BME280;7392;52.078;11.650;2023-03-23T08:17:02;99777.97;;;10.92;100.00
14612;BME280;7392;52.078;11.650;2023-03-23T08:19:32;99773.53;;;10.92;100.00
14612;BME280;7392;52.078;11.650;2023-03-23T08:22:22;99782.31;;;10.96;100.00
14612;BME280;7392;52.078;11.650;2023-03-23T08:25:13;99784.97;;;10.96;100.00
14612;BME280;7392;52.078;11.650;2023-03-23T08:28:19;99799.03;;;11.01;100.00
14612;BME280;7392;52.078;11.650;2023-03-23T08:33:07;99793.50;;;11.12;100.00
14612;BME280;7392;52.078;11.650;2023-03-23T08:35:54;99800.50;;;11.17;100.00
14612;BME280;7392;52.078;11.650;2023-03-23T08:38:41;99777.38;;;11.22;100.00
14612;BME280;7392;52.078;11.650;2023-03-23T08:41:08;99787.03;;;11.25;100.00
14612;BME280;7392;52.078;11.650;2023-03-23T08:43:50;99794.91;;;11.31;100.00
14612;BME280;7392;52.078;11.650;2023-03-23T08:46:44;99772.63;;;11.37;100.00
14612;BME280;7392;52.078;11.650;2023-03-23T08:49:12;99769.88;;;11.43;100.00
14612;BME280;7392;52.078;11.650;2023-03-23T08:51:58;99776.81;;;11.49;100.00
14612;BME280;7392;52.078;11.650;2023-03-23T08:54:47;99777.59;;;11.54;100.00
14612;BME280;7392;52.078;11.650;2023-03-23T08:57:35;99786.34;;;11.59;100.00
14612;BME280;7392;52.078;11.650;2023-03-23T09:00:26;99775.59;;;11.65;100.00
14612;BME280;7392;52.078;11.650;2023-03-23T09:03:04;99773.78;;;11.67;100.00
14612;BME280;7392;52.078;11.650;2023-03-23T09:05:50;99765.59;;;11.75;100.00
14612;BME280;7392;52.078;11.650;2023-03-23T09:08:32;99769.00;;;11.82;100.00
14612;BME280;7392;52.078;11.650;2023-03-23T09:11:01;99776.88;;;11.86;100.00
14612;BME280;7392;52.078;11.650;2023-03-23T09:13:28;99791.88;;;11.92;100.00
14612;BME280;7392;52.078;11.650;2023-03-23T09:15:55;99762.59;;;11.92;100.00
14612;BME280;7392;52.078;11.650;2023-03-23T09:18:21;99771.38;;;11.95;100.00
14612;BME280;7392;52.078;11.650;2023-03-23T09:20:51;99775.78;;;11.98;100.00
14612;BME280;7392;52.078;11.650;2023-03-23T09:23:17;99768.56;;;12.03;100.00
14612;BME280;7392;52.078;11.650;2023-03-23T09:25:44;99777.28;;;12.10;100.00
14612;BME280;7392;52.078;11.650;2023-03-23T09:28:11;99774.50;;;12.14;100.00
14612;BME280;7392;52.078;11.650;2023-03-23T09:30:38;99771.72;;;12.19;100.00
14612;BME280;7392;52.078;11.650;2023-03-23T09:33:06;99769.78;;;12.26;100.00
14612;BME280;7392;52.078;11.650;2023-03-23T09:35:34;99756.28;;;12.33;100.00
14612;BME280;7392;52.078;11.650;2023-03-23T09:38:05;99774.72;;;12.41;100.00
14612;BME280;7392;52.078;11.650;2023-03-23T09:40:38;99757.72;;;12.47;98.93
14612;BME280;7392;52.078;11.650;2023-03-23T09:43:29;99748.66;;;12.54;97.81
14612;BME280;7392;52.078;11.650;2023-03-23T09:46:10;99745.84;;;12.60;97.76
14612;BME280;7392;52.078;11.650;2023-03-23T09:48:47;99751.94;;;12.64;97.63
14612;BME280;7392;52.078;11.650;2023-03-23T09:51:24;99774.88;;;12.71;95.98
14612;BME280;7392;52.078;11.650;2023-03-23T09:54:01;99742.78;;;12.74;95.01
14612;BME280;7392;52.078;11.650;2023-03-23T09:56:31;99758.59;;;12.82;94.67
14612;BME280;7392;52.078;11.650;2023-03-23T09:59:01;99759.34;;;12.87;94.69
14612;BME280;7392;52.078;11.650;2023-03-23T10:01:32;99746.75;;;12.92;94.77
14612;BME280;7392;52.078;11.650;2023-03-23T10:04:10;99746.66;;;12.97;93.77
14612;BME280;7392;52.078;11.650;2023-03-23T10:06:38;99752.75;;;13.00;94.13
14612;BME280;7392;52.078;11.650;2023-03-23T10:09:14;99763.22;;;13.06;94.11
14612;BME280;7392;52.078;11.650;2023-03-23T10:11:50;99761.31;;;13.12;93.68
14612;BME280;7392;52.078;11.650;2023-03-23T10:14:28;99762.91;;;13.19;93.62
14612;BME280;7392;52.078;11.650;2023-03-23T10:17:03;99772.47;;;13.26;91.86
14612;BME280;7392;52.078;11.650;2023-03-23T10:19:34;99778.56;;;13.31;90.53
14612;BME280;7392;52.078;11.650;2023-03-23T10:22:04;99778.38;;;13.37;90.07
14612;BME280;7392;52.078;11.650;2023-03-23T10:24:36;99767.56;;;13.43;90.18
14612;BME280;7392;52.078;11.650;2023-03-23T10:27:19;99775.34;;;13.51;90.36
14612;BME280;7392;52.078;11.650;2023-03-23T10:29:51;99778.81;;;13.55;89.00
14612;BME280;7392;52.078;11.650;2023-03-23T10:32:21;99780.44;;;13.59;88.44
14612;BME280;7392;52.078;11.650;2023-03-23T10:34:56;99784.72;;;13.64;88.79
14612;BME280;7392;52.078;11.650;2023-03-23T10:37:27;99781.91;;;13.69;87.73
14612;BME280;7392;52.078;11.650;2023-03-23T10:39:58;99783.44;;;13.78;88.58
14612;BME280;7392;52.078;11.650;2023-03-23T10:42:27;99790.31;;;13.85;88.23
14612;BME280;7392;52.078;11.650;2023-03-23T10:44:55;99775.94;;;13.91;87.64
14612;BME280;7392;52.078;11.650;2023-03-23T10:47:23;99783.63;;;14.00;88.23
14612;BME280;7392;52.078;11.650;2023-03-23T10:49:52;99787.03;;;14.05;86.87
14612;BME280;7392;52.078;11.650;2023-03-23T10:52:29;99791.28;;;14.11;85.54
14612;BME280;7392;52.078;11.650;2023-03-23T10:55:02;99792.97;;;14.15;85.00
14612;BME280;7392;52.078;11.650;2023-03-23T10:57:32;99789.25;;;14.19;85.05
14612;BME280;7392;52.078;11.650;2023-03-23T11:00:01;99792.66;;;14.24;84.42
14612;BME280;7392;52.078;11.650;2023-03-23T11:02:35;99793.34;;;14.31;84.77
14612;BME280;7392;52.078;11.650;2023-03-23T11:05:05;99788.75;;;14.34;83.81
14612;BME280;7392;52.078;11.650;2023-03-23T11:07:34;99801.13;;;14.38;82.39
14612;BME280;7392;52.078;11.650;2023-03-23T11:10:26;99807.22;;;14.42;81.13
14612;BME280;7392;52.078;11.650;2023-03-23T11:12:56;99791.09;;;14.45;81.68
14612;BME280;7392;52.078;11.650;2023-03-23T11:15:35;99808.66;;;14.52;81.96
14612;BME280;7392;52.078;11.650;2023-03-23T11:18:04;99811.28;;;14.54;81.21
14612;BME280;7392;52.078;11.650;2023-03-23T11:20:35;99811.25;;;14.55;80.74
14612;BME280;7392;52.078;11.650;2023-03-23T11:23:09;99811.09;;;14.60;81.05
14612;BME280;7392;52.078;11.650;2023-03-23T11:25:54;99822.50;;;14.65;81.12
14612;BME280;7392;52.078;11.650;2023-03-23T11:28:26;99804.69;;;14.66;79.75
14612;BME280;7392;52.078;11.650;2023-03-23T11:30:55;99809.03;;;14.68;79.48
14612;BME280;7392;52.078;11.650;2023-03-23T11:33:22;99809.88;;;14.70;79.60
14612;BME280;7392;52.078;11.650;2023-03-23T11:35:53;99811.56;;;14.73;79.72
14612;BME280;7392;52.078;11.650;2023-03-23T11:38:22;99806.09;;;14.77;79.83
14612;BME280;7392;52.078;11.650;2023-03-23T11:40:52;99802.41;;;14.80;79.48
14612;BME280;7392;52.078;11.650;2023-03-23T11:43:21;99796.25;;;14.78;77.53
14612;BME280;7392;52.078;11.650;2023-03-23T11:45:54;99800.75;;;14.77;77.73
14612;BME280;7392;52.078;11.650;2023-03-23T11:48:27;99809.66;;;14.76;76.41
14612;BME280;7392;52.078;11.650;2023-03-23T11:50:59;99797.06;;;14.80;77.09
14612;BME280;7392;52.078;11.650;2023-03-23T11:53:32;99792.44;;;14.85;77.52
14612;BME280;7392;52.078;11.650;2023-03-23T11:56:10;99784.31;;;14.88;76.10
14612;BME280;7392;52.078;11.650;2023-03-23T11:58:38;99788.66;;;14.91;77.27
14612;BME280;7392;52.078;11.650;2023-03-23T12:01:36;99776.06;;;14.94;77.16
14612;BME280;7392;52.078;11.650;2023-03-23T12:04:29;99770.56;;;14.99;77.04
14612;BME280;7392;52.078;11.650;2023-03-23T12:07:07;99775.75;;;15.04;76.90
14612;BME280;7392;52.078;11.650;2023-03-23T12:09:46;99804.00;;;15.11;77.29
14612;BME280;7392;52.078;11.650;2023-03-23T12:12:25;99798.34;;;15.20;76.80
14612;BME280;7392;52.078;11.650;2023-03-23T12:15:01;99800.72;;;15.28;76.50
14612;BME280;7392;52.078;11.650;2023-03-23T12:17:37;99802.25;;;15.35;75.99
14612;BME280;7392;52.078;11.650;2023-03-23T12:20:21;99811.22;;;15.34;74.02
14612;BME280;7392;52.078;11.650;2023-03-23T12:23:02;99799.25;;;15.44;73.50
14612;BME280;7392;52.078;11.650;2023-03-23T12:29:18;99804.81;;;15.87;73.90
14612;BME280;7392;52.078;11.650;2023-03-23T12:32:25;99802.41;;;16.25;73.20
14612;BME280;7392;52.078;11.650;2023-03-23T12:34:59;99813.06;;;16.49;71.05
14612;BME280;7392;52.078;11.650;2023-03-23T12:37:43;99803.50;;;16.63;71.66
14612;BME280;7392;52.078;11.650;2023-03-23T12:40:22;99794.78;;;16.79;69.99
14612;BME280;7392;52.078;11.650;2023-03-23T12:42:56;99798.13;;;16.86;66.20
14612;BME280;7392;52.078;11.650;2023-03-23T12:45:44;99803.03;;;16.96;66.02
14612;BME280;7392;52.078;11.650;2023-03-23T12:48:17;99794.84;;;16.99;61.73
14612;BME280;7392;52.078;11.650;2023-03-23T12:50:59;99788.41;;;17.04;61.66
14612;BME280;7392;52.078;11.650;2023-03-23T12:53:29;99786.53;;;17.06;60.90
14612;BME280;7392;52.078;11.650;2023-03-23T12:56:10;99793.97;;;17.19;62.08
14612;BME280;7392;52.078;11.650;2023-03-23T12:58:43;99793.16;;;17.38;61.54
14612;BME280;7392;52.078;11.650;2023-03-23T13:01:18;99786.09;;;17.56;61.74
14612;BME280;7392;52.078;11.650;2023-03-23T13:03:52;99788.84;;;17.73;61.01
14612;BME280;7392;52.078;11.650;2023-03-23T13:06:23;99782.97;;;17.84;60.08
14612;BME280;7392;52.078;11.650;2023-03-23T13:08:55;99789.31;;;18.02;59.07
14612;BME280;7392;52.078;11.650;2023-03-23T13:11:28;99789.06;;;18.07;59.03
14612;BME280;7392;52.078;11.650;2023-03-23T13:14:05;99785.47;;;18.08;58.21
14612;BME280;7392;52.078;11.650;2023-03-23T13:16:42;99784.88;;;18.01;58.69
14612;BME280;7392;52.078;11.650;2023-03-23T13:19:16;99789.16;;;18.05;57.63
14612;BME280;7392;52.078;11.650;2023-03-23T13:21:47;99784.09;;;17.99;56.75
14612;BME280;7392;52.078;11.650;2023-03-23T13:24:19;99785.56;;;17.86;56.20
14612;BME280;7392;52.078;11.650;2023-03-23T13:26:49;99777.00;;;17.77;57.20
14612;BME280;7392;52.078;11.650;2023-03-23T13:29:18;99784.84;;;17.82;56.28
14612;BME280;7392;52.078;11.650;2023-03-23T13:31:47;99784.34;;;17.74;57.53
14612;BME280;7392;52.078;11.650;2023-03-23T13:34:17;99778.03;;;17.75;56.18
14612;BME280;7392;52.078;11.650;2023-03-23T13:36:53;99767.28;;;17.75;55.09
14612;BME280;7392;52.078;11.650;2023-03-23T13:39:23;99772.34;;;17.62;56.46